sensor_id;sensor_type;location;lat;lon;timestamp;temperature;humidity
23801;DHT22;12081;48.614;10.226;2023-05-01T00:00:31;8.20;99.90
23801;DHT22;12081;48.614;10.226;2023-05-01T00:03:15;8.20;99.90
23801;DHT22;12081;48.614;10.226;2023-05-01T00:06:02;8.10;99.90
23801;DHT22;12081;48.614;10.226;2023-05-01T00:22:30;8.10;99.90
23801;DHT22;12081;48.614;10.226;2023-05-01T00:41:42;7.90;99.90
23801;DHT22;12081;48.614;10.226;2023-05-01T00:47:10;8.00;99.90
23801;DHT22;12081;48.614;10.226;2023-05-01T00:49:54;7.80;99.90
23801;DHT22;12081;48.614;10.226;2023-05-01T00:52:38;7.80;99.90
23801;DHT22;12081;48.614;10.226;2023-05-01T00:58:08;8.30;99.90
23801;DHT22;12081;48.614;10.226;2023-05-01T01:00:54;8.10;99.90
23801;DHT22;12081;48.614;10.226;2023-05-01T01:09:17;8.10;99.90
23801;DHT22;12081;48.614;10.226;2023-05-01T01:17:57;8.30;99.90
23801;DHT22;12081;48.614;10.226;2023-05-01T01:23:41;8.30;99.90
23801;DHT22;12081;48.614;10.226;2023-05-01T01:27:10;7.80;99.90
23801;DHT22;12081;48.614;10.226;2023-05-01T01:30:19;8.20;99.90
23801;DHT22;12081;48.614;10.226;2023-05-01T01:34:14;8.20;99.90
23801;DHT22;12081;48.614;10.226;2023-05-01T01:36:38;8.40;99.90
23801;DHT22;12081;48.614;10.226;2023-05-01T01:39:35;8.40;99.90
23801;DHT22;12081;48.614;10.226;2023-05-01T01:42:39;8.30;99.90
23801;DHT22;12081;48.614;10.226;2023-05-01T01:45:31;8.40;99.90
23801;DHT22;12081;48.614;10.226;2023-05-01T01:48:25;8.40;99.90
23801;DHT22;12081;48.614;10.226;2023-05-01T01:51:17;8.40;99.90
23801;DHT22;12081;48.614;10.226;2023-05-01T01:54:02;8.60;99.90
23801;DHT22;12081;48.614;10.226;2023-05-01T01:56:47;8.50;99.90
23801;DHT22;12081;48.614;10.226;2023-05-01T01:59:33;8.60;99.90
23801;DHT22;12081;48.614;10.226;2023-05-01T02:02:19;8.60;99.90
23801;DHT22;12081;48.614;10.226;2023-05-01T02:05:08;8.70;99.90
23801;DHT22;12081;48.614;10.226;2023-05-01T02:07:55;8.60;99.90
23801;DHT22;12081;48.614;10.226;2023-05-01T02:10:41;8.60;99.90
23801;DHT22;12081;48.614;10.226;2023-05-01T02:13:29;8.60;99.90
23801;DHT22;12081;48.614;10.226;2023-05-01T02:16:15;8.60;99.90
23801;DHT22;12081;48.614;10.226;2023-05-01T02:19:02;8.50;99.90
23801;DHT22;12081;48.614;10.226;2023-05-01T02:21:47;8.50;99.90
23801;DHT22;12081;48.614;10.226;2023-05-01T02:24:32;8.60;99.90
23801;DHT22;12081;48.614;10.226;2023-05-01T02:27:24;8.50;99.90
23801;DHT22;12081;48.614;10.226;2023-05-01T02:30:10;8.50;99.90
23801;DHT22;12081;48.614;10.226;2023-05-01T02:32:55;8.50;99.90
23801;DHT22;12081;48.614;10.226;2023-05-01T02:35:41;8.30;99.90
23801;DHT22;12081;48.614;10.226;2023-05-01T02:38:27;8.30;99.90
23801;DHT22;12081;48.614;10.226;2023-05-01T02:41:14;8.50;99.90
23801;DHT22;12081;48.614;10.226;2023-05-01T02:44:03;8.40;99.90
23801;DHT22;12081;48.614;10.226;2023-05-01T02:46:49;8.40;99.90
23801;DHT22;12081;48.614;10.226;2023-05-01T02:49:37;8.40;99.90
23801;DHT22;12081;48.614;10.226;2023-05-01T05:34:35;8.50;99.90
23801;DHT22;12081;48.614;10.226;2023-05-01T05:40:04;8.50;99.90
23801;DHT22;12081;48.614;10.226;2023-05-01T05:45:33;8.50;99.90
23801;DHT22;12081;48.614;10.226;2023-05-01T05:48:17;8.40;99.90
23801;DHT22;12081;48.614;10.226;2023-05-01T05:56:31;8.30;99.90
23801;DHT22;12081;48.614;10.226;2023-05-01T06:01:59;8.30;99.90
23801;DHT22;12081;48.614;10.226;2023-05-01T06:04:43;7.90;99.90
23801;DHT22;12081;48.614;10.226;2023-05-01T06:10:12;8.40;99.90
23801;DHT22;12081;48.614;10.226;2023-05-01T06:12:56;8.50;99.90
23801;DHT22;12081;48.614;10.226;2023-05-01T06:15:40;8.50;99.90
23801;DHT22;12081;48.614;10.226;2023-05-01T06:18:24;8.80;99.90
23801;DHT22;12081;48.614;10.226;2023-05-01T06:32:07;9.00;99.90
23801;DHT22;12081;48.614;10.226;2023-05-01T06:37:35;8.90;99.90
23801;DHT22;12081;48.614;10.226;2023-05-01T06:40:21;9.30;99.90
23801;DHT22;12081;48.614;10.226;2023-05-01T06:43:05;9.20;99.90
23801;DHT22;12081;48.614;10.226;2023-05-01T06:45:49;9.10;99.90
23801;DHT22;12081;48.614;10.226;2023-05-01T06:48:33;9.10;99.90
23801;DHT22;12081;48.614;10.226;2023-05-01T06:54:02;9.00;99.90
23801;DHT22;12081;48.614;10.226;2023-05-01T06:56:46;9.00;99.90
23801;DHT22;12081;48.614;10.226;2023-05-01T06:59:30;8.90;99.90
23801;DHT22;12081;48.614;10.226;2023-05-01T07:02:14;9.00;99.90
23801;DHT22;12081;48.614;10.226;2023-05-01T07:04:58;9.00;99.90
23801;DHT22;12081;48.614;10.226;2023-05-01T07:07:43;9.00;99.90
23801;DHT22;12081;48.614;10.226;2023-05-01T07:10:27;9.10;99.90
23801;DHT22;12081;48.614;10.226;2023-05-01T07:15:56;9.20;99.90
23801;DHT22;12081;48.614;10.226;2023-05-01T07:18:40;9.30;99.90
23801;DHT22;12081;48.614;10.226;2023-05-01T07:21:24;9.20;99.90
23801;DHT22;12081;48.614;10.226;2023-05-01T07:24:08;9.10;99.90
23801;DHT22;12081;48.614;10.226;2023-05-01T07:26:52;9.20;99.90
23801;DHT22;12081;48.614;10.226;2023-05-01T07:29:37;9.20;99.90
23801;DHT22;12081;48.614;10.226;2023-05-01T07:32:23;9.20;99.90
23801;DHT22;12081;48.614;10.226;2023-05-01T07:35:07;9.20;99.90
23801;DHT22;12081;48.614;10.226;2023-05-01T07:43:22;9.30;99.90
23801;DHT22;12081;48.614;10.226;2023-05-01T07:51:35;9.50;99.90
23801;DHT22;12081;48.614;10.226;2023-05-01T07:57:05;9.60;99.90
23801;DHT22;12081;48.614;10.226;2023-05-01T07:59:53;9.60;99.90
23801;DHT22;12081;48.614;10.226;2023-05-01T08:02:39;9.70;99.90
23801;DHT22;12081;48.614;10.226;2023-05-01T08:10:53;9.90;99.90
23801;DHT22;12081;48.614;10.226;2023-05-01T08:13:37;10.10;99.90
23801;DHT22;12081;48.614;10.226;2023-05-01T08:19:05;10.20;99.90
23801;DHT22;12081;48.614;10.226;2023-05-01T08:24:34;10.70;99.90
23801;DHT22;12081;48.614;10.226;2023-05-01T08:30:03;10.90;99.90
23801;DHT22;12081;48.614;10.226;2023-05-01T08:32:47;11.00;99.90
23801;DHT22;12081;48.614;10.226;2023-05-01T08:35:32;11.20;99.90
23801;DHT22;12081;48.614;10.226;2023-05-01T08:43:47;11.30;99.90
23801;DHT22;12081;48.614;10.226;2023-05-01T08:47:01;11.50;99.90
23801;DHT22;12081;48.614;10.226;2023-05-01T08:49:47;11.60;99.90
23801;DHT22;12081;48.614;10.226;2023-05-01T08:52:34;11.60;99.90
23801;DHT22;12081;48.614;10.226;2023-05-01T08:58:06;12.00;99.90
23801;DHT22;12081;48.614;10.226;2023-05-01T09:03:39;12.10;99.90
23801;DHT22;12081;48.614;10.226;2023-05-01T09:06:27;12.20;99.90
23801;DHT22;12081;48.614;10.226;2023-05-01T09:09:11;12.40;99.90
23801;DHT22;12081;48.614;10.226;2023-05-01T09:11:59;12.50;99.90
23801;DHT22;12081;48.614;10.226;2023-05-01T09:14:44;12.50;99.90
23801;DHT22;12081;48.614;10.226;2023-05-01T09:17:31;12.50;99.90
23801;DHT22;12081;48.614;10.226;2023-05-01T09:20:16;12.50;99.90
23801;DHT22;12081;48.614;10.226;2023-05-01T09:25:46;12.60;99.90
23801;DHT22;12081;48.614;10.226;2023-05-01T09:28:45;12.80;99.90
23801;DHT22;12081;48.614;10.226;2023-05-01T09:31:30;12.70;99.90
23801;DHT22;12081;48.614;10.226;2023-05-01T09:34:19;12.60;99.90
23801;DHT22;12081;48.614;10.226;2023-05-01T09:37:05;13.00;99.90
23801;DHT22;12081;48.614;10.226;2023-05-01T09:40:25;13.00;99.90
23801;DHT22;12081;48.614;10.226;2023-05-01T09:46:00;13.30;99.90
23801;DHT22;12081;48.614;10.226;2023-05-01T09:48:55;13.40;99.90
23801;DHT22;12081;48.614;10.226;2023-05-01T09:51:40;13.50;99.90
23801;DHT22;12081;48.614;10.226;2023-05-01T09:54:24;13.60;99.90
23801;DHT22;12081;48.614;10.226;2023-05-01T10:00:01;14.20;99.90
23801;DHT22;12081;48.614;10.226;2023-05-01T10:02:51;14.30;99.90
23801;DHT22;12081;48.614;10.226;2023-05-01T10:05:42;14.40;99.90
23801;DHT22;12081;48.614;10.226;2023-05-01T10:08:46;14.50;99.90
23801;DHT22;12081;48.614;10.226;2023-05-01T10:11:49;14.60;99.90
23801;DHT22;12081;48.614;10.226;2023-05-01T10:14:49;14.80;99.90
23801;DHT22;12081;48.614;10.226;2023-05-01T10:17:33;14.90;99.90
23801;DHT22;12081;48.614;10.226;2023-05-01T10:23:03;14.80;99.90
23801;DHT22;12081;48.614;10.226;2023-05-01T10:25:48;14.70;99.90
23801;DHT22;12081;48.614;10.226;2023-05-01T10:28:35;14.80;99.90
23801;DHT22;12081;48.614;10.226;2023-05-01T10:31:19;14.80;99.90
23801;DHT22;12081;48.614;10.226;2023-05-01T10:34:03;14.50;99.90
23801;DHT22;12081;48.614;10.226;2023-05-01T10:36:55;14.60;99.90
23801;DHT22;12081;48.614;10.226;2023-05-01T10:39:40;14.60;99.90
23801;DHT22;12081;48.614;10.226;2023-05-01T10:45:27;14.50;99.90
23801;DHT22;12081;48.614;10.226;2023-05-01T10:51:24;15.10;99.90
23801;DHT22;12081;48.614;10.226;2023-05-01T10:57:01;15.60;99.90
23801;DHT22;12081;48.614;10.226;2023-05-01T11:02:45;16.00;99.90
23801;DHT22;12081;48.614;10.226;2023-05-01T11:08:42;17.50;99.90
23801;DHT22;12081;48.614;10.226;2023-05-01T11:19:46;19.90;91.90
23801;DHT22;12081;48.614;10.226;2023-05-01T11:22:32;20.60;90.80
23801;DHT22;12081;48.614;10.226;2023-05-01T11:25:34;20.80;86.50
23801;DHT22;12081;48.614;10.226;2023-05-01T11:28:19;20.60;83.90
23801;DHT22;12081;48.614;10.226;2023-05-01T11:31:04;20.60;80.60
23801;DHT22;12081;48.614;10.226;2023-05-01T11:33:49;20.60;83.00
23801;DHT22;12081;48.614;10.226;2023-05-01T11:36:47;20.70;80.30
23801;DHT22;12081;48.614;10.226;2023-05-01T11:39:32;20.50;81.60
23801;DHT22;12081;48.614;10.226;2023-05-01T11:42:19;20.60;81.30
23801;DHT22;12081;48.614;10.226;2023-05-01T11:45:08;20.50;80.40
23801;DHT22;12081;48.614;10.226;2023-05-01T11:47:56;20.70;80.70
23801;DHT22;12081;48.614;10.226;2023-05-01T11:50:40;20.60;84.40
23801;DHT22;12081;48.614;10.226;2023-05-01T11:53:24;20.50;82.80
23801;DHT22;12081;48.614;10.226;2023-05-01T11:56:19;20.50;85.30
23801;DHT22;12081;48.614;10.226;2023-05-01T11:59:15;21.30;85.70
23801;DHT22;12081;48.614;10.226;2023-05-01T12:04:45;22.50;77.40
23801;DHT22;12081;48.614;10.226;2023-05-01T12:07:29;23.00;73.50
23801;DHT22;12081;48.614;10.226;2023-05-01T12:10:14;23.50;70.50
23801;DHT22;12081;48.614;10.226;2023-05-01T12:12:59;23.50;70.90
23801;DHT22;12081;48.614;10.226;2023-05-01T12:15:47;23.50;68.10
23801;DHT22;12081;48.614;10.226;2023-05-01T12:18:31;23.50;67.40
23801;DHT22;12081;48.614;10.226;2023-05-01T12:21:16;23.80;69.60
23801;DHT22;12081;48.614;10.226;2023-05-01T12:24:11;24.20;64.40
23801;DHT22;12081;48.614;10.226;2023-05-01T12:27:00;24.00;63.90
23801;DHT22;12081;48.614;10.226;2023-05-01T12:29:44;24.10;62.50
23801;DHT22;12081;48.614;10.226;2023-05-01T12:32:31;24.20;63.70
23801;DHT22;12081;48.614;10.226;2023-05-01T12:35:16;24.20;62.20
23801;DHT22;12081;48.614;10.226;2023-05-01T12:38:09;24.20;61.80
23801;DHT22;12081;48.614;10.226;2023-05-01T12:40:56;24.20;64.30
23801;DHT22;12081;48.614;10.226;2023-05-01T12:43:41;24.00;62.40
23801;DHT22;12081;48.614;10.226;2023-05-01T12:46:26;23.80;62.50
23801;DHT22;12081;48.614;10.226;2023-05-01T12:49:17;23.20;64.00
23801;DHT22;12081;48.614;10.226;2023-05-01T12:52:06;22.80;64.40
23801;DHT22;12081;48.614;10.226;2023-05-01T12:55:03;22.80;66.60
23801;DHT22;12081;48.614;10.226;2023-05-01T12:57:52;22.70;67.00
23801;DHT22;12081;48.614;10.226;2023-05-01T13:00:45;22.60;66.60
23801;DHT22;12081;48.614;10.226;2023-05-01T13:03:31;22.40;65.90
23801;DHT22;12081;48.614;10.226;2023-05-01T13:06:15;22.20;66.80
23801;DHT22;12081;48.614;10.226;2023-05-01T13:09:07;22.40;67.20
23801;DHT22;12081;48.614;10.226;2023-05-01T13:12:02;22.90;67.00
23801;DHT22;12081;48.614;10.226;2023-05-01T13:14:49;23.20;65.60
23801;DHT22;12081;48.614;10.226;2023-05-01T13:17:33;23.30;66.40
23801;DHT22;12081;48.614;10.226;2023-05-01T13:20:24;23.30;63.40
23801;DHT22;12081;48.614;10.226;2023-05-01T13:23:10;23.10;64.50
23801;DHT22;12081;48.614;10.226;2023-05-01T13:25:56;23.00;65.30
23801;DHT22;12081;48.614;10.226;2023-05-01T13:28:42;22.90;68.30
23801;DHT22;12081;48.614;10.226;2023-05-01T13:31:28;22.30;68.10
23801;DHT22;12081;48.614;10.226;2023-05-01T13:34:17;21.70;68.40
23801;DHT22;12081;48.614;10.226;2023-05-01T13:37:02;20.90;75.00
23801;DHT22;12081;48.614;10.226;2023-05-01T13:45:18;18.70;84.40
23801;DHT22;12081;48.614;10.226;2023-05-01T13:48:04;18.20;91.50
23801;DHT22;12081;48.614;10.226;2023-05-01T13:50:48;17.70;94.00
23801;DHT22;12081;48.614;10.226;2023-05-01T13:53:32;17.50;96.00
23801;DHT22;12081;48.614;10.226;2023-05-01T14:07:20;17.10;99.90
23801;DHT22;12081;48.614;10.226;2023-05-01T14:10:07;17.30;99.90
23801;DHT22;12081;48.614;10.226;2023-05-01T14:12:54;17.60;99.90
23801;DHT22;12081;48.614;10.226;2023-05-01T14:15:39;17.90;97.90
23801;DHT22;12081;48.614;10.226;2023-05-01T14:21:13;18.40;97.40
23801;DHT22;12081;48.614;10.226;2023-05-01T14:29:28;18.30;98.40
23801;DHT22;12081;48.614;10.226;2023-05-01T14:32:14;18.40;97.70
23801;DHT22;12081;48.614;10.226;2023-05-01T14:40:29;18.60;98.70
23801;DHT22;12081;48.614;10.226;2023-05-01T14:43:16;18.90;96.00
23801;DHT22;12081;48.614;10.226;2023-05-01T14:46:00;18.80;94.20
23801;DHT22;12081;48.614;10.226;2023-05-01T14:48:44;18.80;94.70
23801;DHT22;12081;48.614;10.226;2023-05-01T14:51:30;18.70;93.40
23801;DHT22;12081;48.614;10.226;2023-05-01T14:54:16;18.70;94.30
23801;DHT22;12081;48.614;10.226;2023-05-01T14:59:49;18.40;96.50
23801;DHT22;12081;48.614;10.226;2023-05-01T15:08:03;18.10;96.20
23801;DHT22;12081;48.614;10.226;2023-05-01T15:10:49;18.10;98.20
23801;DHT22;12081;48.614;10.226;2023-05-01T15:19:04;18.00;98.70
23801;DHT22;12081;48.614;10.226;2023-05-01T15:21:48;17.90;99.20
23801;DHT22;12081;48.614;10.226;2023-05-01T15:27:16;18.00;98.10
23801;DHT22;12081;48.614;10.226;2023-05-01T15:32:45;17.90;97.80
23801;DHT22;12081;48.614;10.226;2023-05-01T15:38:14;17.80;99.90
23801;DHT22;12081;48.614;10.226;2023-05-01T15:46:26;17.40;99.90
23801;DHT22;12081;48.614;10.226;2023-05-01T15:49:11;17.40;99.90
23801;DHT22;12081;48.614;10.226;2023-05-01T15:54:39;17.30;99.90
23801;DHT22;12081;48.614;10.226;2023-05-01T16:00:08;17.00;99.90
23801;DHT22;12081;48.614;10.226;2023-05-01T16:02:53;16.50;99.90
23801;DHT22;12081;48.614;10.226;2023-05-01T16:08:23;16.40;99.90
23801;DHT22;12081;48.614;10.226;2023-05-01T16:11:10;16.40;99.90
23801;DHT22;12081;48.614;10.226;2023-05-01T16:13:56;16.30;99.90
23801;DHT22;12081;48.614;10.226;2023-05-01T16:16:43;16.20;99.90
23801;DHT22;12081;48.614;10.226;2023-05-01T16:19:30;15.80;99.90
23801;DHT22;12081;48.614;10.226;2023-05-01T16:22:16;15.80;99.90
23801;DHT22;12081;48.614;10.226;2023-05-01T16:25:00;15.60;99.90
23801;DHT22;12081;48.614;10.226;2023-05-01T16:27:46;15.60;99.90
23801;DHT22;12081;48.614;10.226;2023-05-01T16:30:30;15.50;99.90
23801;DHT22;12081;48.614;10.226;2023-05-01T16:33:20;15.40;99.90
23801;DHT22;12081;48.614;10.226;2023-05-01T16:36:09;15.40;99.90
23801;DHT22;12081;48.614;10.226;2023-05-01T16:38:53;15.10;99.90
23801;DHT22;12081;48.614;10.226;2023-05-01T16:41:59;15.10;99.90
23801;DHT22;12081;48.614;10.226;2023-05-01T16:47:31;14.90;99.90
23801;DHT22;12081;48.614;10.226;2023-05-01T16:50:15;15.10;99.90
23801;DHT22;12081;48.614;10.226;2023-05-01T16:53:00;14.80;99.90
23801;DHT22;12081;48.614;10.226;2023-05-01T16:55:44;14.80;99.90
23801;DHT22;12081;48.614;10.226;2023-05-01T16:58:28;14.70;99.90
23801;DHT22;12081;48.614;10.226;2023-05-01T17:03:57;14.70;99.90
23801;DHT22;12081;48.614;10.226;2023-05-01T17:06:41;14.40;99.90
23801;DHT22;12081;48.614;10.226;2023-05-01T17:14:54;13.70;99.90
23801;DHT22;12081;48.614;10.226;2023-05-01T17:17:39;13.30;99.90
23801;DHT22;12081;48.614;10.226;2023-05-01T17:25:53;13.20;99.90
23801;DHT22;12081;48.614;10.226;2023-05-01T17:31:22;13.00;99.90
23801;DHT22;12081;48.614;10.226;2023-05-01T17:36:51;12.90;99.90
23801;DHT22;12081;48.614;10.226;2023-05-01T17:45:05;12.80;99.90
23801;DHT22;12081;48.614;10.226;2023-05-01T17:47:50;12.80;99.90
23801;DHT22;12081;48.614;10.226;2023-05-01T17:50:35;12.70;99.90
23801;DHT22;12081;48.614;10.226;2023-05-01T17:58:51;12.60;99.90
23801;DHT22;12081;48.614;10.226;2023-05-01T18:04:20;12.50;99.90
23801;DHT22;12081;48.614;10.226;2023-05-01T18:07:05;12.70;99.90
23801;DHT22;12081;48.614;10.226;2023-05-01T18:09:49;12.60;99.90
23801;DHT22;12081;48.614;10.226;2023-05-01T18:18:03;12.10;99.90
23801;DHT22;12081;48.614;10.226;2023-05-01T18:23:33;12.00;99.90
23801;DHT22;12081;48.614;10.226;2023-05-01T18:26:18;12.00;99.90
23801;DHT22;12081;48.614;10.226;2023-05-01T18:31:46;11.90;99.90
23801;DHT22;12081;48.614;10.226;2023-05-01T18:37:14;11.90;99.90
23801;DHT22;12081;48.614;10.226;2023-05-01T18:42:43;11.70;99.90
23801;DHT22;12081;48.614;10.226;2023-05-01T18:50:56;11.50;99.90
23801;DHT22;12081;48.614;10.226;2023-05-01T18:56:25;11.30;99.90
23801;DHT22;12081;48.614;10.226;2023-05-01T19:01:55;11.20;99.90
23801;DHT22;12081;48.614;10.226;2023-05-01T19:04:40;11.10;99.90
23801;DHT22;12081;48.614;10.226;2023-05-01T19:07:27;11.10;99.90
23801;DHT22;12081;48.614;10.226;2023-05-01T19:10:11;11.00;99.90
23801;DHT22;12081;48.614;10.226;2023-05-01T19:23:54;10.70;99.90
23801;DHT22;12081;48.614;10.226;2023-05-01T19:29:23;10.40;99.90
23801;DHT22;12081;48.614;10.226;2023-05-01T19:32:09;10.40;99.90
23801;DHT22;12081;48.614;10.226;2023-05-01T19:34:53;10.40;99.90
23801;DHT22;12081;48.614;10.226;2023-05-01T19:37:38;10.30;99.90
23801;DHT22;12081;48.614;10.226;2023-05-01T19:40:22;10.20;99.90
23801;DHT22;12081;48.614;10.226;2023-05-01T19:43:07;10.20;99.90
23801;DHT22;12081;48.614;10.226;2023-05-01T19:48:36;10.00;99.90
23801;DHT22;12081;48.614;10.226;2023-05-01T19:51:20;10.10;99.90
23801;DHT22;12081;48.614;10.226;2023-05-01T19:56:49;9.90;99.90
23801;DHT22;12081;48.614;10.226;2023-05-01T19:59:34;9.90;99.90
23801;DHT22;12081;48.614;10.226;2023-05-01T20:05:06;9.90;99.90
23801;DHT22;12081;48.614;10.226;2023-05-01T20:10:35;10.00;99.90
23801;DHT22;12081;48.614;10.226;2023-05-01T20:16:04;9.90;99.90
23801;DHT22;12081;48.614;10.226;2023-05-01T20:18:48;10.00;99.90
23801;DHT22;12081;48.614;10.226;2023-05-01T20:27:03;9.90;99.90
23801;DHT22;12081;48.614;10.226;2023-05-01T20:29:49;9.70;99.90
23801;DHT22;12081;48.614;10.226;2023-05-01T20:32:33;9.80;99.90
23801;DHT22;12081;48.614;10.226;2023-05-01T20:35:17;9.80;99.90
23801;DHT22;12081;48.614;10.226;2023-05-01T20:40:46;10.00;99.90
23801;DHT22;12081;48.614;10.226;2023-05-01T20:54:28;9.50;99.90
23801;DHT22;12081;48.614;10.226;2023-05-01T20:57:16;9.60;99.90
23801;DHT22;12081;48.614;10.226;2023-05-01T21:05:29;9.60;99.90
23801;DHT22;12081;48.614;10.226;2023-05-01T21:08:13;9.60;99.90
23801;DHT22;12081;48.614;10.226;2023-05-01T21:10:59;9.60;99.90
23801;DHT22;12081;48.614;10.226;2023-05-01T21:19:13;9.50;99.90
23801;DHT22;12081;48.614;10.226;2023-05-01T21:24:43;9.30;99.90
23801;DHT22;12081;48.614;10.226;2023-05-01T21:27:32;9.50;99.90
23801;DHT22;12081;48.614;10.226;2023-05-01T21:30:28;8.70;99.90
23801;DHT22;12081;48.614;10.226;2023-05-01T21:33:14;9.40;99.90
23801;DHT22;12081;48.614;10.226;2023-05-01T21:36:00;9.20;99.90
23801;DHT22;12081;48.614;10.226;2023-05-01T21:38:45;9.40;99.90
23801;DHT22;12081;48.614;10.226;2023-05-01T21:41:29;9.20;99.90
23801;DHT22;12081;48.614;10.226;2023-05-01T21:44:13;9.10;99.90
23801;DHT22;12081;48.614;10.226;2023-05-01T21:47:00;9.00;99.90
23801;DHT22;12081;48.614;10.226;2023-05-01T21:55:21;8.90;99.90
23801;DHT22;12081;48.614;10.226;2023-05-01T22:03:38;8.70;99.90
23801;DHT22;12081;48.614;10.226;2023-05-01T22:11:53;8.70;99.90
23801;DHT22;12081;48.614;10.226;2023-05-01T22:14:37;8.60;99.90
23801;DHT22;12081;48.614;10.226;2023-05-01T22:17:22;8.50;99.90
23801;DHT22;12081;48.614;10.226;2023-05-01T22:20:10;8.40;99.90
23801;DHT22;12081;48.614;10.226;2023-05-01T22:22:54;8.20;99.90
23801;DHT22;12081;48.614;10.226;2023-05-01T22:28:27;8.10;99.90
23801;DHT22;12081;48.614;10.226;2023-05-01T22:39:24;8.10;99.90
23801;DHT22;12081;48.614;10.226;2023-05-01T22:42:09;8.10;99.90
23801;DHT22;12081;48.614;10.226;2023-05-01T22:44:53;8.00;99.90
23801;DHT22;12081;48.614;10.226;2023-05-01T22:50:22;8.00;99.90
23801;DHT22;12081;48.614;10.226;2023-05-01T22:53:07;7.80;99.90
23801;DHT22;12081;48.614;10.226;2023-05-01T22:58:36;7.80;99.90
23801;DHT22;12081;48.614;10.226;2023-05-01T23:01:21;7.80;99.90
23801;DHT22;12081;48.614;10.226;2023-05-01T23:04:06;7.80;99.90
23801;DHT22;12081;48.614;10.226;2023-05-01T23:09:34;7.80;99.90
23801;DHT22;12081;48.614;10.226;2023-05-01T23:15:10;7.80;99.90
23801;DHT22;12081;48.614;10.226;2023-05-01T23:17:56;7.70;99.90
23801;DHT22;12081;48.614;10.226;2023-05-01T23:20:42;7.70;99.90
23801;DHT22;12081;48.614;10.226;2023-05-01T23:23:30;7.80;99.90
23801;DHT22;12081;48.614;10.226;2023-05-01T23:26:25;7.70;99.90
23801;DHT22;12081;48.614;10.226;2023-05-01T23:29:13;7.70;99.90
23801;DHT22;12081;48.614;10.226;2023-05-01T23:31:57;7.80;99.90
23801;DHT22;12081;48.614;10.226;2023-05-01T23:37:26;7.70;99.90
23801;DHT22;12081;48.614;10.226;2023-05-01T23:40:10;7.50;99.90
23801;DHT22;12081;48.614;10.226;2023-05-01T23:42:54;7.60;99.90
23801;DHT22;12081;48.614;10.226;2023-05-01T23:45:39;7.60;99.90
23801;DHT22;12081;48.614;10.226;2023-05-01T23:48:23;7.50;99.90
23801;DHT22;12081;48.614;10.226;2023-05-01T23:53:52;7.20;99.90
